createdAt,value
2022-12-01T00:00:17.548Z,101238.19
2022-12-01T00:01:39.279Z,101237.28
2022-12-01T00:03:00.185Z,101241.53
2022-12-01T00:04:22.631Z,101240.50
2022-12-01T00:05:44.880Z,101251.94
2022-12-01T00:07:07.701Z,101238.78
2022-12-01T00:08:30.747Z,101240.66
2022-12-01T00:10:09.831Z,101233.47
2022-12-01T00:11:30.408Z,101241.44
2022-12-01T00:12:56.132Z,101248.53
2022-12-01T00:14:16.879Z,101239.81
2022-12-01T00:15:38.877Z,101245.22
2022-12-01T00:17:00.922Z,101247.09
2022-12-01T00:18:23.218Z,101242.81
2022-12-01T00:19:44.125Z,101239.41
2022-12-01T00:21:07.915Z,101246.50
2022-12-01T00:22:29.672Z,101239.59
2022-12-01T00:23:54.045Z,101239.66
2022-12-01T00:25:16.834Z,101253.75
2022-12-01T00:26:37.440Z,101247.59
2022-12-01T00:27:59.363Z,101252.91
2022-12-01T00:29:22.435Z,101252.06
2022-12-01T00:30:43.564Z,101247.78
2022-12-01T00:32:05.521Z,101248.69
2022-12-01T00:33:26.160Z,101247.09
2022-12-01T00:34:47.895Z,101243.59
2022-12-01T00:36:10.902Z,101248.88
2022-12-01T00:37:31.577Z,101246.22
2022-12-01T00:38:53.817Z,101241.13
2022-12-01T00:40:15.617Z,101240.34
2022-12-01T00:41:36.245Z,101244.03
2022-12-01T00:42:57.580Z,101238.06
2022-12-01T00:44:19.366Z,101236.44
2022-12-01T00:45:41.033Z,101237.34
2022-12-01T00:47:02.970Z,101240.97
2022-12-01T00:48:23.946Z,101239.22
2022-12-01T00:49:45.715Z,101244.53
2022-12-01T00:51:07.654Z,101243.78
2022-12-01T00:52:30.737Z,101236.75
2022-12-01T00:53:51.017Z,101236.88
2022-12-01T00:55:14.735Z,101242.22
2022-12-01T00:56:37.365Z,101244.03
2022-12-01T00:57:59.229Z,101237.00
2022-12-01T00:59:20.262Z,101238.88
2022-12-01T01:00:43.123Z,101236.34
2022-12-01T01:02:08.335Z,101236.34
2022-12-01T01:03:30.719Z,101233.78
2022-12-01T01:04:52.032Z,101231.13
2022-12-01T01:06:13.859Z,101231.91
2022-12-01T01:07:37.244Z,101234.53
2022-12-01T01:08:58.853Z,101234.53
2022-12-01T01:10:19.556Z,101235.50
2022-12-01T01:11:41.413Z,101225.84
2022-12-01T01:13:04.692Z,101226.69
2022-12-01T01:14:25.408Z,101225.84
2022-12-01T01:15:46.729Z,101236.41
2022-12-01T01:17:07.999Z,101231.22
2022-12-01T01:18:29.042Z,101225.94
2022-12-01T01:19:51.075Z,101224.13
2022-12-01T01:21:13.091Z,101231.13
2022-12-01T01:22:39.316Z,101224.03
2022-12-01T01:23:59.929Z,101230.09
2022-12-01T01:25:21.313Z,101221.25
2022-12-01T01:26:42.707Z,101225.66
2022-12-01T01:28:05.724Z,101229.19
2022-12-01T01:29:27.422Z,101228.31
2022-12-01T01:30:48.141Z,101222.09
2022-12-01T01:32:09.951Z,101222.94
2022-12-01T01:33:30.158Z,101217.47
2022-12-01T01:34:54.536Z,101217.47
2022-12-01T01:36:16.456Z,101218.22
2022-12-01T01:37:39.376Z,101216.38
2022-12-01T01:39:01.720Z,101215.50
2022-12-01T01:40:23.405Z,101218.06
2022-12-01T01:41:45.273Z,101213.66
2022-12-01T01:43:10.565Z,101210.22
2022-12-01T01:44:51.839Z,101207.66
2022-12-01T01:46:12.969Z,101206.03
2022-12-01T01:47:37.133Z,101206.22
2022-12-01T01:49:00.580Z,101206.38
2022-12-01T01:50:23.010Z,101210.06
2022-12-01T01:51:47.788Z,101201.25
2022-12-01T01:53:11.234Z,101201.25
2022-12-01T01:54:35.170Z,101207.41
2022-12-01T01:55:56.763Z,101204.75
2022-12-01T01:57:20.902Z,101203.88
2022-12-01T01:58:42.828Z,101202.97
2022-12-01T02:00:07.475Z,101203.75
2022-12-01T02:01:33.772Z,101198.34
2022-12-01T02:02:56.571Z,101189.38
2022-12-01T02:04:17.853Z,101191.94
2022-12-01T02:05:38.394Z,101196.22
2022-12-01T02:07:00.079Z,101196.03
2022-12-01T02:08:22.893Z,101191.50
2022-12-01T02:09:44.497Z,101187.84
2022-12-01T02:11:11.474Z,101191.25
2022-12-01T02:12:42.252Z,101193.72
2022-12-01T02:14:08.775Z,101191.00
2022-12-01T02:15:34.915Z,101190.91
2022-12-01T02:17:00.412Z,101199.72
2022-12-01T02:18:25.430Z,101197.81
2022-12-01T02:20:20.261Z,101190.75
2022-12-01T02:21:51.873Z,101196.03
2022-12-01T02:23:33.230Z,101194.31
2022-12-01T02:25:03.571Z,101193.41
2022-12-01T02:26:34.628Z,101196.88
2022-12-01T02:28:12.100Z,101192.44
2022-12-01T02:29:45.890Z,101187.91
2022-12-01T02:31:15.253Z,101188.75
2022-12-01T02:32:51.588Z,101196.53
2022-12-01T02:34:14.424Z,101190.31
2022-12-01T02:35:44.869Z,101196.38
2022-12-01T02:37:08.002Z,101191.06
2022-12-01T02:38:31.269Z,101189.16
2022-12-01T02:39:55.375Z,101191.75
2022-12-01T02:41:20.637Z,101188.31
2022-12-01T02:42:50.342Z,101179.53
2022-12-01T02:44:15.385Z,101183.97
2022-12-01T02:45:41.182Z,101186.69
2022-12-01T02:47:06.507Z,101184.91
2022-12-01T02:48:31.132Z,101184.91
2022-12-01T02:49:55.759Z,101178.69
2022-12-01T02:51:20.814Z,101178.56
2022-12-01T02:52:43.924Z,101175.78
2022-12-01T02:54:06.370Z,101177.38
2022-12-01T02:55:26.979Z,101181.72
2022-12-01T02:56:48.255Z,101179.75
2022-12-01T02:58:14.138Z,101182.31
2022-12-01T02:59:35.353Z,101179.59
2022-12-01T03:01:08.473Z,101179.47
2022-12-01T03:02:34.583Z,101175.91
2022-12-01T03:04:09.810Z,101164.34
2022-12-01T03:05:39.949Z,101170.34
2022-12-01T03:07:06.288Z,101165.78
2022-12-01T03:08:32.837Z,101165.72
2022-12-01T03:10:01.149Z,101164.66
2022-12-01T03:11:28.292Z,101168.94
2022-12-01T03:12:55.535Z,101165.31
2022-12-01T03:14:24.117Z,101168.66
2022-12-01T03:15:49.057Z,101166.00
2022-12-01T03:17:15.460Z,101162.53
2022-12-01T03:18:40.067Z,101167.81
2022-12-01T03:20:08.813Z,101169.63
2022-12-01T03:21:33.889Z,101162.59
2022-12-01T03:23:00.524Z,101161.69
2022-12-01T03:24:23.982Z,101164.41
2022-12-01T03:25:47.341Z,101164.47
2022-12-01T03:27:11.090Z,101161.84
2022-12-01T03:28:33.851Z,101163.56
2022-12-01T03:29:58.949Z,101167.13
2022-12-01T03:31:23.102Z,101161.69
2022-12-01T03:32:48.379Z,101168.66
2022-12-01T03:34:13.494Z,101162.41
2022-12-01T03:35:38.254Z,101162.41
2022-12-01T03:37:02.926Z,101165.94
2022-12-01T03:38:24.585Z,101161.47
2022-12-01T03:39:49.241Z,101167.56
2022-12-01T03:41:13.670Z,101165.63
2022-12-01T03:42:38.672Z,101159.50
2022-12-01T03:44:04.183Z,101169.06
2022-12-01T03:45:29.682Z,101160.19
2022-12-01T03:46:53.999Z,101158.25
2022-12-01T03:48:16.244Z,101157.34
2022-12-01T03:49:41.291Z,101155.53
2022-12-01T03:51:12.416Z,101158.00
2022-12-01T03:52:40.954Z,101160.56
2022-12-01T03:54:04.054Z,101165.78
2022-12-01T03:55:27.550Z,101155.19
2022-12-01T03:56:50.641Z,101162.25
2022-12-01T03:58:13.799Z,101157.91
2022-12-01T03:59:36.972Z,101160.75
2022-12-01T04:00:59.382Z,101153.84
2022-12-01T04:02:21.352Z,101153.16
2022-12-01T04:03:42.193Z,101154.97
2022-12-01T04:05:05.703Z,101164.03
2022-12-01T04:06:26.287Z,101163.19
2022-12-01T04:07:48.204Z,101165.06
2022-12-01T04:09:08.723Z,101170.34
2022-12-01T04:10:30.515Z,101162.41
2022-12-01T04:12:09.338Z,101169.44
2022-12-01T04:13:33.315Z,101169.31
2022-12-01T04:14:55.032Z,101167.56
2022-12-01T04:16:15.583Z,101161.22
2022-12-01T04:17:37.751Z,101173.50
2022-12-01T04:18:58.324Z,101165.63
2022-12-01T04:20:21.620Z,101163.09
2022-12-01T04:21:45.588Z,101170.28
2022-12-01T04:23:07.498Z,101165.94
2022-12-01T04:24:28.094Z,101165.06
2022-12-01T04:25:50.021Z,101165.94
2022-12-01T04:27:11.544Z,101171.25
2022-12-01T04:28:32.349Z,101160.72
2022-12-01T04:29:54.085Z,101159.09
2022-12-01T04:31:14.924Z,101160.91
2022-12-01T04:32:39.125Z,101162.78
2022-12-01T04:34:01.452Z,101160.22
2022-12-01T04:35:24.718Z,101160.31
2022-12-01T04:36:47.012Z,101161.38
2022-12-01T04:38:14.709Z,101166.66
2022-12-01T04:39:36.583Z,101162.28
2022-12-01T04:40:56.876Z,101163.13
2022-12-01T04:42:18.762Z,101165.78
2022-12-01T04:43:39.628Z,101168.34
2022-12-01T04:45:01.411Z,101169.97
2022-12-01T04:46:22.483Z,101170.75
2022-12-01T04:47:44.145Z,101167.13
2022-12-01T04:49:05.880Z,101178.41
2022-12-01T04:50:29.126Z,101172.94
2022-12-01T04:51:51.359Z,101171.91
2022-12-01T04:53:13.199Z,101176.16
2022-12-01T04:54:33.844Z,101174.28
2022-12-01T04:55:55.462Z,101176.72
2022-12-01T04:57:17.551Z,101178.44
2022-12-01T04:58:38.860Z,101176.66
2022-12-01T05:00:00.821Z,101185.38
2022-12-01T05:01:21.608Z,101186.09
2022-12-01T05:02:44.006Z,101178.91
2022-12-01T05:04:06.093Z,101177.03
2022-12-01T05:05:28.288Z,101180.44
2022-12-01T05:06:49.816Z,101177.81
2022-12-01T05:08:10.882Z,101182.16
2022-12-01T05:09:32.431Z,101176.75
2022-12-01T05:10:55.301Z,101177.69
2022-12-01T05:12:17.443Z,101179.50
2022-12-01T05:13:39.930Z,101174.31
2022-12-01T05:15:01.641Z,101172.78
2022-12-01T05:16:23.219Z,101176.47
2022-12-01T05:17:45.575Z,101169.63
2022-12-01T05:19:21.345Z,101174.28
2022-12-01T05:20:58.648Z,101174.53
2022-12-01T05:22:31.503Z,101172.09
2022-12-01T05:24:02.201Z,101182.75
2022-12-01T05:25:22.830Z,101174.03
2022-12-01T05:26:45.189Z,101175.94
2022-12-01T05:28:06.686Z,101174.16
2022-12-01T05:29:28.552Z,101178.56
2022-12-01T05:30:49.489Z,101172.44
2022-12-01T05:32:11.212Z,101173.28
2022-12-01T05:33:32.800Z,101174.22
2022-12-01T05:34:54.229Z,101173.38
2022-12-01T05:36:17.297Z,101175.19
2022-12-01T05:37:38.150Z,101169.97
2022-12-01T05:39:01.397Z,101168.16
2022-12-01T05:40:22.096Z,101174.31
2022-12-01T05:41:43.767Z,101163.81
2022-12-01T05:43:04.613Z,101167.31
2022-12-01T05:44:26.120Z,101169.88
2022-12-01T05:45:46.633Z,101166.28
2022-12-01T05:47:08.372Z,101169.78
2022-12-01T05:48:29.216Z,101169.69
2022-12-01T05:49:51.239Z,101171.41
2022-12-01T05:51:14.222Z,101174.91
2022-12-01T05:52:36.585Z,101174.91
2022-12-01T05:54:00.143Z,101176.63
2022-12-01T05:55:21.401Z,101179.19
2022-12-01T05:56:43.126Z,101178.31
2022-12-01T05:58:03.878Z,101178.22
2022-12-01T05:59:25.690Z,101173.78
2022-12-01T06:00:47.613Z,101179.84
2022-12-01T06:02:08.229Z,101177.13
2022-12-01T06:03:29.910Z,101174.34
2022-12-01T06:04:50.269Z,101182.31
2022-12-01T06:06:12.224Z,101177.97
2022-12-01T06:07:34.794Z,101177.13
2022-12-01T06:08:57.972Z,101179.84
2022-12-01T06:10:18.808Z,101187.78
2022-12-01T06:11:40.641Z,101179.00
2022-12-01T06:13:01.369Z,101172.84
2022-12-01T06:14:23.347Z,101181.66
2022-12-01T06:15:45.141Z,101179.91
2022-12-01T06:17:06.883Z,101179.00
2022-12-01T06:18:28.412Z,101183.44
2022-12-01T06:19:50.522Z,101182.41
2022-12-01T06:21:12.437Z,101176.16
2022-12-01T06:22:33.942Z,101181.25
2022-12-01T06:23:55.607Z,101174.09
2022-12-01T06:25:19.829Z,101181.94
2022-12-01T06:26:40.552Z,101177.31
2022-12-01T06:28:02.614Z,101177.22
2022-12-01T06:29:23.557Z,101172.59
2022-12-01T06:30:45.664Z,101175.03
2022-12-01T06:32:32.892Z,101174.88
2022-12-01T06:33:54.744Z,101175.44
2022-12-01T06:35:16.362Z,101176.22
2022-12-01T06:36:38.198Z,101176.03
2022-12-01T06:38:00.041Z,101174.13
2022-12-01T06:39:21.123Z,101188.03
2022-12-01T06:40:44.871Z,101180.00
2022-12-01T06:42:06.781Z,101177.25
2022-12-01T06:43:28.775Z,101172.63
2022-12-01T06:44:50.397Z,101181.34
2022-12-01T06:46:12.179Z,101175.94
2022-12-01T06:47:34.268Z,101177.44
2022-12-01T06:48:58.853Z,101180.88
2022-12-01T06:50:20.751Z,101175.56
2022-12-01T06:51:45.332Z,101177.25
2022-12-01T06:53:07.248Z,101180.88
2022-12-01T06:54:28.748Z,101179.16
2022-12-01T06:55:51.614Z,101175.66
2022-12-01T06:57:13.432Z,101181.78
2022-12-01T06:58:35.891Z,101180.94
2022-12-01T06:59:58.426Z,101179.91
2022-12-01T07:01:20.955Z,101189.56
2022-12-01T07:02:42.950Z,101186.81
2022-12-01T07:04:03.811Z,101178.78
2022-12-01T07:05:36.067Z,101178.66
2022-12-01T07:06:57.797Z,101183.88
2022-12-01T07:08:21.093Z,101180.19
2022-12-01T07:09:42.826Z,101178.50
2022-12-01T07:11:05.397Z,101175.72
2022-12-01T07:12:27.102Z,101188.06
2022-12-01T07:13:50.430Z,101181.81
2022-12-01T07:15:12.476Z,101193.25
2022-12-01T07:16:33.370Z,101186.16
2022-12-01T07:17:55.197Z,101202.94
2022-12-01T07:19:18.756Z,101192.31
2022-12-01T07:20:40.661Z,101192.22
2022-12-01T07:22:04.224Z,101198.28
2022-12-01T07:23:25.764Z,101193.75
2022-12-01T07:24:47.219Z,101199.88
2022-12-01T07:26:12.195Z,101194.50
2022-12-01T07:27:33.856Z,101205.75
2022-12-01T07:28:55.349Z,101196.00
2022-12-01T07:30:17.150Z,101195.81
2022-12-01T07:31:41.934Z,101200.09
2022-12-01T07:33:03.786Z,101196.47
2022-12-01T07:34:25.355Z,101192.78
2022-12-01T07:35:46.808Z,101189.00
2022-12-01T07:37:10.000Z,101198.63
2022-12-01T07:38:34.775Z,101195.78
2022-12-01T07:39:56.368Z,101199.13
2022-12-01T07:41:20.412Z,101199.88
2022-12-01T07:42:45.346Z,101201.47
2022-12-01T07:44:07.103Z,101202.13
2022-12-01T07:45:28.758Z,101198.41
2022-12-01T07:46:52.176Z,101203.72
2022-12-01T07:48:13.934Z,101204.56
2022-12-01T07:49:37.475Z,101202.81
2022-12-01T07:50:59.583Z,101201.84
2022-12-01T07:52:21.375Z,101204.56
2022-12-01T07:53:43.006Z,101202.88
2022-12-01T07:55:04.552Z,101205.63
2022-12-01T07:56:28.320Z,101206.69
2022-12-01T07:57:53.531Z,101202.41
2022-12-01T07:59:15.834Z,101204.22
2022-12-01T08:00:37.981Z,101205.19
2022-12-01T08:01:59.502Z,101199.97
2022-12-01T08:03:20.734Z,101207.91
2022-12-01T08:04:44.331Z,101210.50
2022-12-01T08:06:06.605Z,101205.06
2022-12-01T08:07:29.988Z,101210.09
2022-12-01T08:08:54.161Z,101213.50
2022-12-01T08:10:16.050Z,101208.19
2022-12-01T08:11:39.307Z,101207.34
2022-12-01T08:13:01.225Z,101204.78
2022-12-01T08:14:23.107Z,101203.09
2022-12-01T08:15:43.650Z,101202.41
2022-12-01T08:17:05.492Z,101198.91
2022-12-01T08:18:27.166Z,101200.72
2022-12-01T08:19:49.568Z,101199.75
2022-12-01T08:21:12.668Z,101202.31
2022-12-01T08:22:36.090Z,101200.53
2022-12-01T08:23:58.778Z,101204.78
2022-12-01T08:25:20.721Z,101201.91
2022-12-01T08:26:43.912Z,101191.97
2022-12-01T08:28:05.057Z,101194.34
2022-12-01T08:29:27.444Z,101203.72
2022-12-01T08:30:52.049Z,101196.28
2022-12-01T08:32:18.621Z,101195.16
2022-12-01T08:33:40.416Z,101198.44
2022-12-01T08:35:02.192Z,101200.91
2022-12-01T08:36:24.857Z,101201.78
2022-12-01T08:37:46.708Z,101202.50
2022-12-01T08:39:09.079Z,101204.03
2022-12-01T08:40:36.935Z,101201.38
2022-12-01T08:42:03.204Z,101201.38
2022-12-01T08:45:08.526Z,101196.91
2022-12-01T08:47:37.253Z,101197.94
2022-12-01T08:48:59.248Z,101197.94
2022-12-01T08:50:20.812Z,101204.22
2022-12-01T08:51:42.432Z,101199.75
2022-12-01T08:53:13.159Z,101199.66
2022-12-01T08:54:35.298Z,101197.75
2022-12-01T08:55:59.359Z,101208.38
2022-12-01T08:57:27.870Z,101202.13
2022-12-01T08:58:54.714Z,101204.66
2022-12-01T09:00:19.121Z,101203.59
2022-12-01T09:01:52.379Z,101209.78
2022-12-01T09:03:18.565Z,101205.41
2022-12-01T09:04:41.622Z,101208.06
2022-12-01T09:06:07.160Z,101204.56
2022-12-01T09:07:31.191Z,101212.53
2022-12-01T09:10:08.466Z,101206.59
2022-12-01T09:11:27.349Z,101198.72
2022-12-01T09:12:50.756Z,101204.97
2022-12-01T09:14:16.529Z,101203.06
2022-12-01T09:15:38.375Z,101206.59
2022-12-01T09:17:21.241Z,101204.66
2022-12-01T09:18:44.681Z,101202.75
2022-12-01T09:20:07.261Z,101201.81
2022-12-01T09:21:32.197Z,101204.34
2022-12-01T09:22:54.124Z,101202.47
2022-12-01T09:24:16.788Z,101204.06
2022-12-01T09:25:39.412Z,101198.66
2022-12-01T09:27:01.750Z,101203.00
2022-12-01T09:28:24.167Z,101201.94
2022-12-01T09:29:46.414Z,101198.25
2022-12-01T09:31:09.710Z,101210.47
2022-12-01T09:32:32.153Z,101200.59
2022-12-01T09:33:59.426Z,101201.25
2022-12-01T09:35:23.672Z,101197.56
2022-12-01T09:36:46.398Z,101186.72
2022-12-01T09:38:11.395Z,101194.38
2022-12-01T09:39:35.856Z,101195.09
2022-12-01T09:40:58.560Z,101186.09
2022-12-01T09:42:30.845Z,101181.50
2022-12-01T09:44:01.354Z,101183.97
2022-12-01T09:45:26.896Z,101183.84
2022-12-01T09:46:50.731Z,101183.63
2022-12-01T09:48:19.602Z,101182.59
2022-12-01T09:49:47.239Z,101186.84
2022-12-01T09:51:10.823Z,101179.75
2022-12-01T09:52:35.091Z,101186.53
2022-12-01T09:53:58.291Z,101185.47
2022-12-01T09:55:20.861Z,101179.22
2022-12-01T09:56:45.427Z,101175.72
2022-12-01T09:58:13.170Z,101179.22
2022-12-01T09:59:42.898Z,101182.81
2022-12-01T10:01:04.593Z,101180.16
2022-12-01T10:02:30.710Z,101181.03
2022-12-01T10:03:57.587Z,101178.38
2022-12-01T10:05:22.685Z,101179.22
2022-12-01T10:06:51.605Z,101174.75
2022-12-01T10:08:16.168Z,101171.13
2022-12-01T10:09:42.471Z,101167.50
2022-12-01T10:11:08.069Z,101168.25
2022-12-01T10:12:31.651Z,101167.19
2022-12-01T10:13:53.300Z,101163.56
2022-12-01T10:15:24.986Z,101163.56
2022-12-01T10:16:48.745Z,101169.75
2022-12-01T10:18:23.278Z,101168.88
2022-12-01T10:19:48.820Z,101165.25
2022-12-01T10:21:15.391Z,101163.56
2022-12-01T10:22:51.885Z,101166.97
2022-12-01T10:24:29.829Z,101165.25
2022-12-01T10:25:57.289Z,101160.69
2022-12-01T10:27:25.945Z,101168.56
2022-12-01T10:28:54.311Z,101169.41
2022-12-01T10:30:18.669Z,101163.03
2022-12-01T10:31:46.829Z,101164.75
2022-12-01T10:33:17.155Z,101151.34
2022-12-01T10:34:43.430Z,101160.06
2022-12-01T10:36:05.557Z,101164.41
2022-12-01T10:37:31.481Z,101157.31
2022-12-01T10:38:56.478Z,101157.19
2022-12-01T10:40:19.132Z,101154.44
2022-12-01T10:41:41.293Z,101153.47
2022-12-01T10:43:03.932Z,101151.66
2022-12-01T10:44:25.656Z,101142.72
2022-12-01T10:45:47.601Z,101146.13
2022-12-01T10:47:13.494Z,101143.34
2022-12-01T10:48:35.134Z,101140.59
2022-12-01T10:49:57.356Z,101139.63
2022-12-01T10:51:20.722Z,101139.53
2022-12-01T10:52:49.917Z,101145.69
2022-12-01T10:54:12.824Z,101138.56
2022-12-01T10:55:36.621Z,101143.78
2022-12-01T10:56:58.814Z,101146.34
2022-12-01T10:58:20.852Z,101137.38
2022-12-01T10:59:50.110Z,101139.94
2022-12-01T11:01:17.726Z,101139.81
2022-12-01T11:02:40.328Z,101141.41
2022-12-01T11:04:05.193Z,101145.66
2022-12-01T11:05:27.990Z,101134.94
2022-12-01T11:06:51.095Z,101135.66
2022-12-01T11:08:24.105Z,101134.69
2022-12-01T11:09:48.957Z,101133.75
2022-12-01T11:11:24.508Z,101132.69
2022-12-01T11:12:54.615Z,101135.22
2022-12-01T11:14:18.995Z,101135.97
2022-12-01T11:15:41.571Z,101128.81
2022-12-01T11:17:16.849Z,101133.19
2022-12-01T11:18:39.939Z,101134.91
2022-12-01T11:20:24.253Z,101130.53
2022-12-01T11:21:47.962Z,101127.03
2022-12-01T11:23:28.707Z,101130.53
2022-12-01T11:25:01.803Z,101128.72
2022-12-01T11:26:26.191Z,101134.91
2022-12-01T11:27:49.855Z,101121.72
2022-12-01T11:29:27.930Z,101130.53
2022-12-01T11:30:57.583Z,101130.63
2022-12-01T11:32:22.817Z,101122.75
2022-12-01T11:33:46.898Z,101124.56
2022-12-01T11:35:18.097Z,101122.13
2022-12-01T11:36:53.568Z,101124.91
2022-12-01T11:38:29.920Z,101118.84
2022-12-01T11:39:53.899Z,101126.94
2022-12-01T11:41:26.693Z,101127.03
2022-12-01T11:42:51.261Z,101125.34
2022-12-01T11:46:03.932Z,101131.66
2022-12-01T11:47:26.993Z,101132.50
2022-12-01T11:49:00.224Z,101133.34
2022-12-01T11:50:27.967Z,101123.66
2022-12-01T11:51:50.179Z,101125.34
2022-12-01T11:53:27.486Z,101124.50
2022-12-01T11:54:58.120Z,101124.59
2022-12-01T11:56:23.666Z,101122.91
2022-12-01T11:57:48.965Z,101129.06
2022-12-01T11:59:13.532Z,101128.25
2022-12-01T12:00:43.891Z,101130.91
2022-12-01T12:02:19.501Z,101119.38
2022-12-01T12:03:49.492Z,101126.31
2022-12-01T12:05:29.722Z,101124.50
2022-12-01T12:06:57.652Z,101118.22
2022-12-01T12:08:29.327Z,101113.88
2022-12-01T12:09:59.172Z,101112.88
2022-12-01T12:11:26.357Z,101116.41
2022-12-01T12:12:58.626Z,101114.59
2022-12-01T12:14:35.734Z,101109.28
2022-12-01T12:16:04.491Z,101112.88
2022-12-01T12:17:42.011Z,101117.38
2022-12-01T12:19:13.449Z,101120.13
2022-12-01T12:20:41.353Z,101113.97
2022-12-01T12:22:09.452Z,101120.25
2022-12-01T12:23:53.077Z,101126.41
2022-12-01T12:25:24.307Z,101118.53
2022-12-01T12:26:51.962Z,101118.53
2022-12-01T12:28:23.754Z,101115.03
2022-12-01T12:29:55.349Z,101111.41
2022-12-01T12:31:22.717Z,101107.88
2022-12-01T12:33:08.299Z,101114.19
2022-12-01T12:34:34.714Z,101115.03
2022-12-01T12:36:02.208Z,101123.00
2022-12-01T12:37:26.555Z,101119.50
2022-12-01T12:38:55.188Z,101110.78
2022-12-01T12:40:24.441Z,101114.50
2022-12-01T12:41:48.198Z,101113.75
2022-12-01T12:43:21.347Z,101114.72
2022-12-01T12:44:47.946Z,101113.16
2022-12-01T12:46:11.670Z,101116.88
2022-12-01T12:47:38.566Z,101115.06
2022-12-01T12:49:23.725Z,101113.38
2022-12-01T12:50:52.110Z,101118.03
2022-12-01T12:52:15.338Z,101112.94
2022-12-01T12:53:42.451Z,101118.25
2022-12-01T12:55:12.511Z,101123.56
2022-12-01T12:56:35.630Z,101116.53
2022-12-01T12:58:05.450Z,101127.19
2022-12-01T12:59:35.783Z,101119.31
2022-12-01T13:01:00.260Z,101117.59
2022-12-01T13:02:24.038Z,101120.38
2022-12-01T13:03:52.706Z,101123.91
2022-12-01T13:05:18.105Z,101125.72
2022-12-01T13:06:41.788Z,101123.91
2022-12-01T13:08:05.839Z,101138.16
2022-12-01T13:09:29.870Z,101129.53
2022-12-01T13:10:55.234Z,101131.34
2022-12-01T13:12:20.001Z,101131.44
2022-12-01T13:13:47.380Z,101133.25
2022-12-01T13:15:16.086Z,101131.56
2022-12-01T13:16:41.127Z,101125.38
2022-12-01T13:18:05.019Z,101129.75
2022-12-01T13:19:29.782Z,101134.22
2022-12-01T13:20:55.774Z,101129.75
2022-12-01T13:22:21.097Z,101135.91
2022-12-01T13:23:43.169Z,101129.00
2022-12-01T13:25:05.716Z,101132.63
2022-12-01T13:26:27.780Z,101125.59
2022-12-01T13:27:50.128Z,101132.72
2022-12-01T13:29:16.157Z,101137.19
2022-12-01T13:30:40.321Z,101130.28
2022-12-01T13:32:02.685Z,101138.34
2022-12-01T13:37:03.047Z,101125.13
2022-12-01T13:38:30.771Z,101122.50
2022-12-01T13:39:56.398Z,101115.22
2022-12-01T13:41:27.741Z,101114.31
2022-12-01T13:42:57.783Z,101112.50
2022-12-01T13:44:27.891Z,101120.13
2022-12-01T13:45:51.336Z,101129.91
2022-12-01T13:47:32.465Z,101126.75
2022-12-01T13:48:56.774Z,101117.78
2022-12-01T13:50:56.821Z,101123.72
2022-12-01T13:52:50.330Z,101121.28
2022-12-01T13:54:30.776Z,101127.22
2022-12-01T13:56:16.695Z,101123.78
2022-12-01T13:57:41.989Z,101129.50
2022-12-01T13:59:04.490Z,101126.28
2022-12-01T14:00:29.881Z,101124.63
2022-12-01T14:02:17.093Z,101121.91
2022-12-01T14:03:41.923Z,101130.25
2022-12-01T14:05:46.954Z,101129.34
2022-12-01T14:07:33.427Z,101126.13
2022-12-01T14:09:00.971Z,101129.97
2022-12-01T14:10:31.961Z,101116.81
2022-12-01T14:11:58.853Z,101127.53
2022-12-01T14:13:22.627Z,101126.69
2022-12-01T14:14:53.850Z,101126.88
2022-12-01T14:16:17.023Z,101129.84
2022-12-01T14:17:40.220Z,101124.00
2022-12-01T14:19:03.327Z,101126.50
2022-12-01T14:20:25.519Z,101121.44
2022-12-01T14:21:52.434Z,101127.53
2022-12-01T14:23:18.498Z,101126.47
2022-12-01T14:24:44.691Z,101126.47
2022-12-01T14:26:19.800Z,101128.13
2022-12-01T14:27:44.773Z,101132.72
2022-12-01T14:29:29.496Z,101131.88
2022-12-01T14:31:05.333Z,101131.00
2022-12-01T14:32:27.543Z,101134.78
2022-12-01T14:33:54.426Z,101127.81
2022-12-01T14:35:16.606Z,101131.81
2022-12-01T14:36:41.940Z,101136.66
2022-12-01T14:38:06.404Z,101132.66
2022-12-01T14:39:32.197Z,101132.00
2022-12-01T14:40:55.961Z,101128.81
2022-12-01T14:42:43.503Z,101135.75
2022-12-01T14:44:13.304Z,101131.50
2022-12-01T14:45:41.020Z,101134.03
2022-12-01T14:47:09.854Z,101125.41
2022-12-01T14:48:38.892Z,101135.03
2022-12-01T14:50:29.841Z,101127.72
2022-12-01T14:51:57.337Z,101124.53
2022-12-01T14:53:24.780Z,101126.19
2022-12-01T14:54:50.703Z,101125.16
2022-12-01T14:56:17.872Z,101122.19
2022-12-01T14:57:42.744Z,101127.44
2022-12-01T14:59:19.879Z,101123.66
2022-12-01T15:00:57.073Z,101124.28
2022-12-01T15:02:18.898Z,101129.53
2022-12-01T15:03:45.233Z,101132.88
2022-12-01T15:05:09.788Z,101131.81
2022-12-01T15:06:33.548Z,101124.44
2022-12-01T15:08:12.612Z,101126.97
2022-12-01T15:10:02.409Z,101126.75
2022-12-01T15:11:26.734Z,101132.00
2022-12-01T15:12:49.633Z,101129.06
2022-12-01T15:14:31.897Z,101128.81
2022-12-01T15:15:56.414Z,101118.97
2022-12-01T15:17:31.017Z,101120.41
2022-12-01T15:18:53.972Z,101122.69
2022-12-01T15:20:30.571Z,101115.34
2022-12-01T15:21:53.254Z,101114.28
2022-12-01T15:23:17.949Z,101113.22
2022-12-01T15:24:40.077Z,101119.31
2022-12-01T15:26:02.681Z,101111.72
2022-12-01T15:27:31.601Z,101107.94
2022-12-01T15:29:15.664Z,101117.59
2022-12-01T15:30:37.985Z,101114.63
2022-12-01T15:32:02.526Z,101110.84
2022-12-01T15:33:30.681Z,101108.94
2022-12-01T15:35:01.843Z,101116.91
2022-12-01T15:36:24.321Z,101115.84
2022-12-01T15:37:46.750Z,101112.06
2022-12-01T15:39:15.077Z,101120.91
2022-12-01T15:42:25.276Z,101109.34
2022-12-01T15:43:56.371Z,101113.53
2022-12-01T15:45:21.195Z,101112.47
2022-12-01T15:46:43.984Z,101112.69
2022-12-01T15:48:19.173Z,101109.13
2022-12-01T15:49:49.984Z,101115.44
2022-12-01T15:51:18.563Z,101111.00
2022-12-01T15:52:46.091Z,101113.75
2022-12-01T15:54:17.394Z,101117.34
2022-12-01T15:55:40.564Z,101106.59
2022-12-01T15:57:03.630Z,101112.06
2022-12-01T15:58:30.372Z,101105.78
2022-12-01T15:59:56.543Z,101107.66
2022-12-01T16:01:23.737Z,101112.28
2022-12-01T16:02:46.954Z,101116.91
2022-12-01T16:04:20.032Z,101116.91
2022-12-01T16:05:45.782Z,101112.53
2022-12-01T16:07:11.165Z,101118.00
2022-12-01T16:08:33.227Z,101116.31
2022-12-01T16:09:58.371Z,101117.13
2022-12-01T16:11:22.108Z,101116.31
2022-12-01T16:12:44.645Z,101121.75
2022-12-01T16:14:22.904Z,101122.84
2022-12-01T16:15:46.966Z,101112.94
2022-12-01T16:17:11.793Z,101114.63
2022-12-01T16:18:35.797Z,101120.94
2022-12-01T16:20:23.128Z,101119.47
2022-12-01T16:21:47.929Z,101118.41
2022-12-01T16:23:12.730Z,101119.47
2022-12-01T16:24:37.033Z,101119.47
2022-12-01T16:26:02.031Z,101125.78